createdAt,value
2022-10-20T00:02:25.877Z,101944.72
2022-10-20T00:05:12.881Z,101948.03
2022-10-20T00:07:59.816Z,101953.22
2022-10-20T00:10:56.348Z,101950.03
2022-10-20T00:13:45.744Z,101949.81
2022-10-20T00:16:36.802Z,101936.69
2022-10-20T00:19:23.813Z,101933.78
2022-10-20T00:22:10.724Z,101936.25
2022-10-20T00:24:57.703Z,101932.13
2022-10-20T00:27:44.631Z,101934.19
2022-10-20T00:30:31.861Z,101926.78
2022-10-20T00:33:18.757Z,101927.22
2022-10-20T00:36:08.647Z,101926.19
2022-10-20T00:39:01.313Z,101921.03
2022-10-20T00:41:48.300Z,101909.56
2022-10-20T00:45:11.874Z,101906.28
2022-10-20T00:48:14.852Z,101906.34
2022-10-20T00:51:02.165Z,101899.69
2022-10-20T00:53:51.782Z,101892.50
2022-10-20T00:56:41.046Z,101890.88
2022-10-20T00:59:32.563Z,101893.47
2022-10-20T01:02:20.290Z,101886.81
2022-10-20T01:05:08.031Z,101881.91
2022-10-20T01:07:55.161Z,101883.53
2022-10-20T01:11:18.423Z,101886.44
2022-10-20T01:14:21.777Z,101888.78
2022-10-20T01:17:08.721Z,101876.13
2022-10-20T01:20:04.409Z,101868.75
2022-10-20T01:22:51.370Z,101873.66
2022-10-20T01:25:38.289Z,101866.28
2022-10-20T01:29:13.306Z,101878.03
2022-10-20T01:32:22.471Z,101884.31
2022-10-20T01:35:23.125Z,101872.81
2022-10-20T01:38:35.107Z,101864.41
2022-10-20T01:41:33.044Z,101862.00
2022-10-20T01:44:23.909Z,101867.38
2022-10-20T01:47:12.273Z,101857.75
2022-10-20T01:49:59.516Z,101849.78
2022-10-20T01:52:46.874Z,101852.84
2022-10-20T01:55:35.497Z,101841.88
2022-10-20T01:58:36.514Z,101833.56
2022-10-20T02:01:31.034Z,101829.09
2022-10-20T02:04:27.390Z,101826.63
2022-10-20T02:07:27.263Z,101817.59
2022-10-20T02:10:27.799Z,101799.66
2022-10-20T02:13:16.327Z,101801.03
2022-10-20T02:16:10.517Z,101794.44
2022-10-20T02:21:54.092Z,101794.44
2022-10-20T02:24:42.913Z,101798.31
2022-10-20T02:27:34.665Z,101788.91
2022-10-20T02:30:22.154Z,101793.09
2022-10-20T02:33:09.694Z,101789.31
2022-10-20T02:35:58.840Z,101788.69
2022-10-20T02:38:46.122Z,101786.84
2022-10-20T02:41:33.434Z,101784.78
2022-10-20T02:44:20.815Z,101785.38
2022-10-20T02:47:07.754Z,101785.97
2022-10-20T02:49:54.705Z,101781.03
2022-10-20T02:52:42.491Z,101776.56
2022-10-20T02:55:29.705Z,101776.56
2022-10-20T02:58:16.799Z,101787.00
2022-10-20T03:01:04.397Z,101782.09
2022-10-20T03:03:51.545Z,101781.28
2022-10-20T03:06:39.047Z,101787.00
2022-10-20T03:09:26.141Z,101786.16
2022-10-20T03:12:13.091Z,101784.88
2022-10-20T03:15:00.106Z,101769.34
2022-10-20T03:17:46.992Z,101770.47
2022-10-20T03:20:34.372Z,101773.13
2022-10-20T03:23:21.821Z,101786.50
2022-10-20T03:26:11.068Z,101769.66
2022-10-20T03:28:57.977Z,101770.38
2022-10-20T03:31:45.009Z,101777.13
2022-10-20T03:34:32.095Z,101772.34
2022-10-20T03:37:19.024Z,101773.41
2022-10-20T03:40:06.601Z,101767.94
2022-10-20T03:42:53.487Z,101765.78
2022-10-20T03:45:40.477Z,101760.03
2022-10-20T03:48:27.829Z,101756.53
2022-10-20T03:51:15.649Z,101748.13
2022-10-20T03:54:02.648Z,101746.34
2022-10-20T03:56:50.441Z,101740.81
2022-10-20T03:59:37.569Z,101727.81
2022-10-20T04:02:37.404Z,101717.16
2022-10-20T04:05:24.661Z,101711.22
2022-10-20T04:08:11.672Z,101702.41
2022-10-20T04:10:59.106Z,101704.88
2022-10-20T04:13:46.153Z,101703.00
2022-10-20T04:16:33.079Z,101700.56
2022-10-20T04:19:20.059Z,101690.38
2022-10-20T04:22:07.020Z,101690.16
2022-10-20T04:24:54.051Z,101680.34
2022-10-20T04:27:41.803Z,101676.75
2022-10-20T04:30:28.764Z,101676.81
2022-10-20T04:33:16.411Z,101673.53
2022-10-20T04:36:07.078Z,101683.03
2022-10-20T04:38:53.957Z,101684.34
2022-10-20T04:41:41.206Z,101692.41
2022-10-20T04:44:28.114Z,101683.63
2022-10-20T04:47:15.159Z,101676.75
2022-10-20T04:50:02.155Z,101672.88
2022-10-20T04:52:49.136Z,101668.16
2022-10-20T04:55:36.371Z,101676.16
2022-10-20T04:58:24.240Z,101670.03
2022-10-20T05:01:11.402Z,101664.59
2022-10-20T05:03:58.702Z,101658.56
2022-10-20T05:06:45.717Z,101661.22
2022-10-20T05:09:33.093Z,101651.19
2022-10-20T05:12:20.035Z,101644.84
2022-10-20T05:15:07.534Z,101634.41
2022-10-20T05:17:54.420Z,101636.31
2022-10-20T05:20:57.176Z,101627.00
2022-10-20T05:23:48.426Z,101625.31
2022-10-20T05:26:37.290Z,101637.22
2022-10-20T05:29:24.238Z,101643.22
2022-10-20T05:32:11.389Z,101645.47
2022-10-20T05:34:58.305Z,101625.63
2022-10-20T05:37:45.250Z,101631.19
2022-10-20T05:40:32.187Z,101628.94
2022-10-20T05:43:19.181Z,101626.78
2022-10-20T05:46:07.370Z,101629.34
2022-10-20T05:48:56.959Z,101636.69
2022-10-20T05:51:45.351Z,101624.63
2022-10-20T05:54:32.359Z,101629.56
2022-10-20T05:57:19.313Z,101619.31
2022-10-20T06:00:07.012Z,101626.78
2022-10-20T06:02:54.726Z,101624.63
2022-10-20T06:05:41.701Z,101631.19
2022-10-20T06:08:33.066Z,101626.69
2022-10-20T06:11:21.192Z,101639.25
2022-10-20T06:14:09.827Z,101638.34
2022-10-20T06:16:57.816Z,101645.31
2022-10-20T06:19:44.806Z,101652.91
2022-10-20T06:22:32.005Z,101641.03
2022-10-20T06:25:19.308Z,101625.66
2022-10-20T06:28:06.328Z,101623.19
2022-10-20T06:30:53.282Z,101624.00
2022-10-20T06:33:40.297Z,101612.31
2022-10-20T06:36:27.969Z,101601.34
2022-10-20T06:39:20.926Z,101607.78
2022-10-20T06:42:11.067Z,101600.41
2022-10-20T06:44:59.888Z,101600.63
2022-10-20T06:47:46.807Z,101586.84
2022-10-20T06:50:35.161Z,101589.19
2022-10-20T06:53:22.107Z,101587.50
2022-10-20T06:56:15.386Z,101585.75
2022-10-20T06:59:03.382Z,101583.41
2022-10-20T07:01:50.489Z,101587.72
2022-10-20T07:04:37.470Z,101575.88
2022-10-20T07:07:24.575Z,101571.38
2022-10-20T07:10:11.469Z,101556.78
2022-10-20T07:12:58.380Z,101548.31
2022-10-20T07:15:46.550Z,101549.19
2022-10-20T07:18:35.519Z,101548.94
2022-10-20T07:21:30.757Z,101547.34
2022-10-20T07:24:21.703Z,101547.69
2022-10-20T07:27:08.618Z,101550.53
2022-10-20T07:29:55.548Z,101554.16
2022-10-20T07:32:42.504Z,101546.34
2022-10-20T07:35:30.320Z,101532.97
2022-10-20T07:38:17.276Z,101519.06
2022-10-20T07:41:04.279Z,101513.69
2022-10-20T07:43:52.062Z,101524.13
2022-10-20T07:46:39.035Z,101514.31
2022-10-20T07:52:32.962Z,101486.84
2022-10-20T07:55:37.575Z,101469.16
2022-10-20T07:58:25.425Z,101461.16
2022-10-20T08:01:12.476Z,101456.91
2022-10-20T08:03:59.396Z,101438.94
2022-10-20T08:06:47.360Z,101444.66
2022-10-20T08:09:34.311Z,101438.06
2022-10-20T08:12:21.373Z,101445.53
2022-10-20T08:15:08.758Z,101439.91
2022-10-20T08:17:55.662Z,101431.50
2022-10-20T08:20:43.005Z,101432.97
2022-10-20T08:23:30.018Z,101422.84
2022-10-20T08:26:20.670Z,101407.25
2022-10-20T08:29:07.793Z,101397.06
2022-10-20T08:31:54.765Z,101387.59
2022-10-20T08:34:41.805Z,101389.78
2022-10-20T08:37:32.111Z,101379.22
2022-10-20T08:40:31.009Z,101380.41
2022-10-20T08:43:20.017Z,101373.13
2022-10-20T08:46:07.654Z,101370.84
2022-10-20T08:48:54.930Z,101369.38
2022-10-20T08:51:42.686Z,101357.88
2022-10-20T08:54:33.086Z,101359.03
2022-10-20T08:57:34.552Z,101358.00
2022-10-20T09:00:24.109Z,101360.75
2022-10-20T09:03:17.678Z,101343.56
2022-10-20T09:06:16.220Z,101341.66
2022-10-20T09:09:03.814Z,101341.13
2022-10-20T09:11:51.844Z,101327.84
2022-10-20T09:14:39.985Z,101324.06
2022-10-20T09:17:27.006Z,101319.13
2022-10-20T09:20:28.827Z,101316.59
2022-10-20T09:23:39.300Z,101309.28
2022-10-20T09:26:57.568Z,101293.59
2022-10-20T09:29:45.601Z,101288.38
2022-10-20T09:32:50.941Z,101296.22
2022-10-20T09:35:39.977Z,101284.53
2022-10-20T09:38:32.502Z,101280.53
2022-10-20T09:41:24.286Z,101286.47
2022-10-20T09:44:25.593Z,101287.53
2022-10-20T09:47:16.091Z,101278.28
2022-10-20T09:50:06.813Z,101266.16
2022-10-20T09:52:54.582Z,101275.78
2022-10-20T09:55:47.297Z,101262.81
2022-10-20T09:58:42.136Z,101252.81
2022-10-20T10:01:29.307Z,101260.84
2022-10-20T10:04:31.150Z,101263.19
2022-10-20T10:07:27.284Z,101265.28
2022-10-20T10:10:17.204Z,101258.00
2022-10-20T10:16:06.393Z,101268.56
2022-10-20T10:19:02.332Z,101259.06
2022-10-20T10:21:54.179Z,101269.66
2022-10-20T10:24:47.204Z,101269.44
2022-10-20T10:27:36.567Z,101259.44
2022-10-20T10:30:40.098Z,101243.38
2022-10-20T10:33:29.170Z,101217.84
2022-10-20T10:36:34.713Z,101202.09
2022-10-20T10:39:23.207Z,101197.50
2022-10-20T10:42:32.187Z,101188.84
2022-10-20T10:45:36.285Z,101211.66
2022-10-20T10:49:16.874Z,101205.47
2022-10-20T10:53:01.767Z,101206.16
2022-10-20T10:56:01.308Z,101200.22
2022-10-20T10:58:58.767Z,101185.91
2022-10-20T11:02:23.408Z,101199.13
2022-10-20T11:08:41.721Z,101195.91
2022-10-20T11:11:49.785Z,101185.97
2022-10-20T11:15:13.238Z,101180.88
2022-10-20T11:18:25.807Z,101188.25
2022-10-20T11:21:24.083Z,101171.84
2022-10-20T11:24:23.319Z,101157.94
2022-10-20T11:27:14.522Z,101152.38
2022-10-20T11:30:08.769Z,101141.53
2022-10-20T11:33:12.998Z,101120.50
2022-10-20T11:36:12.872Z,101113.66
2022-10-20T11:38:59.861Z,101118.34
2022-10-20T11:41:50.713Z,101135.78
2022-10-20T11:44:41.810Z,101126.16
2022-10-20T11:47:39.559Z,101103.88
2022-10-20T11:50:26.625Z,101124.44
2022-10-20T11:53:36.036Z,101121.59
2022-10-20T11:57:04.732Z,101101.78
2022-10-20T12:00:22.526Z,101106.31
2022-10-20T12:03:45.669Z,101137.38
2022-10-20T12:06:44.473Z,101108.88
2022-10-20T12:09:50.140Z,101087.16
2022-10-20T12:12:58.760Z,101079.91
2022-10-20T12:15:48.451Z,101079.50
2022-10-20T12:18:36.750Z,101078.28
2022-10-20T12:22:01.376Z,101076.22
2022-10-20T12:24:51.298Z,101087.88
2022-10-20T12:27:38.317Z,101088.56
2022-10-20T12:30:51.715Z,101109.94
2022-10-20T12:34:22.370Z,101106.22
2022-10-20T12:37:19.512Z,101089.31
2022-10-20T12:40:06.397Z,101104.72
2022-10-20T12:42:55.870Z,101096.34
2022-10-20T12:45:44.465Z,101087.03
2022-10-20T12:48:35.593Z,101095.13
2022-10-20T12:51:50.591Z,101091.50
2022-10-20T12:54:46.305Z,101072.59
2022-10-20T12:57:41.691Z,101046.81
2022-10-20T13:00:28.842Z,101066.97
2022-10-20T13:03:44.329Z,101053.72
2022-10-20T13:06:33.322Z,101041.28
2022-10-20T13:09:22.111Z,101050.16
2022-10-20T13:12:26.315Z,101072.66
2022-10-20T13:15:18.530Z,101058.13
2022-10-20T13:18:11.710Z,101061.34
2022-10-20T13:21:06.668Z,101072.50
2022-10-20T13:24:04.465Z,101080.56
2022-10-20T13:26:57.816Z,101064.03
2022-10-20T13:29:47.000Z,101067.63
2022-10-20T13:33:01.724Z,101089.78
2022-10-20T13:36:20.336Z,101080.50
2022-10-20T13:39:28.241Z,101074.03
2022-10-20T13:42:24.410Z,101077.16
2022-10-20T13:45:43.721Z,101080.41
2022-10-20T13:48:39.784Z,101086.34
2022-10-20T13:51:35.517Z,101072.28
2022-10-20T13:54:26.578Z,101061.03
2022-10-20T13:57:35.032Z,101057.81
2022-10-20T14:00:29.332Z,101063.84
2022-10-20T14:03:18.064Z,101077.06
2022-10-20T14:06:05.105Z,101075.88
2022-10-20T14:08:52.049Z,101098.72
2022-10-20T14:11:44.889Z,101090.22
2022-10-20T14:14:33.007Z,101109.09
2022-10-20T14:17:22.198Z,101107.81
2022-10-20T14:20:21.881Z,101115.44
2022-10-20T14:23:10.892Z,101126.66
2022-10-20T14:25:59.349Z,101113.00
2022-10-20T14:28:48.833Z,101122.16
2022-10-20T14:31:35.874Z,101126.41
2022-10-20T14:34:33.442Z,101130.91
2022-10-20T14:37:41.446Z,101125.38
2022-10-20T14:40:35.088Z,101127.34
2022-10-20T14:43:41.690Z,101126.44
2022-10-20T14:46:32.598Z,101116.03
2022-10-20T14:49:27.041Z,101111.25
2022-10-20T14:52:20.343Z,101103.22
2022-10-20T14:55:47.179Z,101091.16
2022-10-20T14:58:54.505Z,101088.31
2022-10-20T15:01:50.738Z,101097.44
2022-10-20T15:04:42.455Z,101096.28
2022-10-20T15:07:34.840Z,101091.09
2022-10-20T15:10:25.478Z,101087.06
2022-10-20T15:13:28.508Z,101081.00
2022-10-20T15:16:49.585Z,101082.59
2022-10-20T15:19:36.794Z,101077.00
2022-10-20T15:22:23.819Z,101076.66
2022-10-20T15:25:10.867Z,101073.00
2022-10-20T15:27:59.429Z,101073.78
2022-10-20T15:30:46.586Z,101070.56
2022-10-20T15:33:33.849Z,101065.38
2022-10-20T15:36:25.211Z,101056.00
2022-10-20T15:39:12.352Z,101067.59
2022-10-20T15:41:59.272Z,101054.34
2022-10-20T15:44:46.317Z,101047.78
2022-10-20T15:47:33.238Z,101050.53
2022-10-20T15:50:22.872Z,101051.38
2022-10-20T15:53:12.949Z,101040.56
2022-10-20T15:55:59.901Z,101030.06
2022-10-20T15:58:47.945Z,101035.03
2022-10-20T16:01:35.495Z,101036.66
2022-10-20T16:04:26.324Z,101045.66
2022-10-20T16:07:13.625Z,101030.34
2022-10-20T16:10:00.682Z,101042.94
2022-10-20T16:12:48.429Z,101055.63
2022-10-20T16:15:36.018Z,101055.16
2022-10-20T16:18:25.064Z,101059.09
2022-10-20T16:21:15.052Z,101063.41
2022-10-20T16:24:02.252Z,101063.41
2022-10-20T16:26:49.339Z,101047.97
2022-10-20T16:29:36.277Z,101043.09
2022-10-20T16:32:23.266Z,101042.28
2022-10-20T16:35:10.435Z,101036.69
2022-10-20T16:37:57.905Z,101019.88
2022-10-20T16:40:44.821Z,101012.25
2022-10-20T16:43:32.166Z,101001.03
2022-10-20T16:46:19.089Z,101000.63
2022-10-20T16:49:06.485Z,100982.97
2022-10-20T16:51:53.477Z,100978.16
2022-10-20T16:57:29.638Z,100995.81
2022-10-20T17:00:16.671Z,100991.88
2022-10-20T17:03:03.767Z,100996.63
2022-10-20T17:06:03.220Z,100991.41
2022-10-20T17:08:50.972Z,100997.91
2022-10-20T17:11:37.959Z,100972.72
2022-10-20T17:14:25.757Z,100961.09
2022-10-20T17:17:13.287Z,100952.69
2022-10-20T17:20:01.131Z,100969.53
2022-10-20T17:22:48.085Z,100991.13
2022-10-20T17:25:35.620Z,101001.16
2022-10-20T17:28:22.557Z,100995.06
2022-10-20T17:31:11.725Z,101008.78
2022-10-20T17:33:59.532Z,101000.38
2022-10-20T17:36:46.567Z,100999.97
2022-10-20T17:39:33.530Z,101011.16
2022-10-20T17:42:20.497Z,100992.75
2022-10-20T17:45:08.025Z,100987.16
2022-10-20T17:47:55.700Z,101003.19
2022-10-20T17:50:44.195Z,100993.50
2022-10-20T17:53:33.726Z,100983.91
2022-10-20T17:56:27.693Z,100978.31
2022-10-20T17:59:15.180Z,100995.13
2022-10-20T18:02:02.825Z,101002.66
2022-10-20T18:04:51.639Z,100988.72
2022-10-20T18:07:40.022Z,100980.25
2022-10-20T18:10:28.012Z,100966.69
2022-10-20T18:13:15.983Z,100968.69
2022-10-20T18:16:12.396Z,100970.19
2022-10-20T18:19:00.794Z,100969.41
2022-10-20T18:21:49.533Z,100978.59
2022-10-20T18:24:37.726Z,100968.59
2022-10-20T18:27:24.736Z,100972.94
2022-10-20T18:30:12.518Z,100976.50
2022-10-20T18:33:00.065Z,100984.41
2022-10-20T18:35:47.195Z,100978.00
2022-10-20T18:38:39.314Z,100985.97
2022-10-20T18:41:30.281Z,100981.25
2022-10-20T18:44:19.473Z,100977.63
2022-10-20T18:47:06.452Z,100989.19
2022-10-20T18:49:53.384Z,100993.16
2022-10-20T18:52:40.326Z,100999.94
2022-10-20T18:55:27.350Z,100992.31
2022-10-20T18:58:14.336Z,100997.59
2022-10-20T19:01:10.168Z,101001.13
2022-10-20T19:03:59.042Z,100994.25
2022-10-20T19:06:48.211Z,100995.88
2022-10-20T19:09:35.140Z,100992.19
2022-10-20T19:12:22.093Z,100986.00
2022-10-20T19:15:09.302Z,100982.66
2022-10-20T19:18:00.836Z,100980.63
2022-10-20T19:20:55.511Z,100989.34
2022-10-20T19:23:47.212Z,100981.56
2022-10-20T19:26:38.888Z,100985.13
2022-10-20T19:29:26.010Z,100989.97
2022-10-20T19:32:12.966Z,101000.19
2022-10-20T19:34:59.950Z,101002.00
2022-10-20T19:37:46.899Z,100996.16
2022-10-20T19:40:33.870Z,100997.28
2022-10-20T19:43:20.818Z,100991.69
2022-10-20T19:46:11.109Z,101004.38
2022-10-20T19:48:58.196Z,100999.88
2022-10-20T19:51:45.397Z,100998.66
2022-10-20T19:54:32.502Z,100998.28
2022-10-20T19:57:19.441Z,100999.19
2022-10-20T20:00:07.535Z,100994.47
2022-10-20T20:02:54.506Z,100995.31
2022-10-20T20:05:41.489Z,100985.75
2022-10-20T20:08:28.525Z,100980.91
2022-10-20T20:11:23.957Z,100986.94
2022-10-20T20:14:16.266Z,100983.28
2022-10-20T20:17:04.313Z,100977.13
2022-10-20T20:19:52.147Z,100964.88
2022-10-20T20:22:39.067Z,100956.47
2022-10-20T20:25:26.011Z,100950.56
2022-10-20T20:28:13.078Z,100956.91
2022-10-20T20:31:12.222Z,100949.69
2022-10-20T20:33:59.224Z,100947.31
2022-10-20T20:36:46.276Z,100939.31
2022-10-20T20:39:33.244Z,100942.91
2022-10-20T20:42:20.242Z,100930.38
2022-10-20T20:45:07.611Z,100926.47
2022-10-20T20:47:54.626Z,100932.22
2022-10-20T20:50:41.556Z,100925.84
2022-10-20T20:53:28.519Z,100926.94
2022-10-20T20:56:19.584Z,100926.19
2022-10-20T20:59:09.538Z,100939.75
2022-10-20T21:01:56.510Z,100936.63
2022-10-20T21:04:43.636Z,100933.34
2022-10-20T21:07:31.804Z,100934.31
2022-10-20T21:10:18.878Z,100934.25
2022-10-20T21:13:05.818Z,100933.00
2022-10-20T21:15:52.777Z,100924.69
2022-10-20T21:18:41.420Z,100923.88
2022-10-20T21:21:32.419Z,100933.75
2022-10-20T21:24:19.336Z,100925.22
2022-10-20T21:27:06.342Z,100928.97
2022-10-20T21:29:53.300Z,100930.38
2022-10-20T21:32:40.677Z,100927.06
2022-10-20T21:35:27.791Z,100938.63
2022-10-20T21:38:14.902Z,100933.66
2022-10-20T21:41:06.907Z,100926.69
2022-10-20T21:43:56.245Z,100927.63
2022-10-20T21:46:50.739Z,100933.88
2022-10-20T21:49:38.589Z,100941.41
2022-10-20T21:52:25.514Z,100936.25
2022-10-20T21:55:12.466Z,100938.66
2022-10-20T21:57:59.468Z,100946.56
2022-10-20T22:00:46.468Z,100948.63
2022-10-20T22:06:22.877Z,100958.94
2022-10-20T22:09:11.768Z,100964.59
2022-10-20T22:11:59.691Z,100963.34
2022-10-20T22:14:47.331Z,100962.84
2022-10-20T22:17:34.591Z,100969.56
2022-10-20T22:20:22.295Z,100973.66
2022-10-20T22:23:09.304Z,100968.38
2022-10-20T22:25:56.168Z,100978.63
2022-10-20T22:28:43.170Z,100965.44
2022-10-20T22:31:30.490Z,100964.97
2022-10-20T22:34:18.074Z,100970.75
2022-10-20T22:37:04.998Z,100973.78
2022-10-20T22:39:51.955Z,100968.94
2022-10-20T22:42:39.201Z,100979.38
2022-10-20T22:45:26.313Z,100989.09
2022-10-20T22:48:13.326Z,78111.13
2022-10-20T22:51:00.565Z,100964.34
2022-10-20T22:53:47.628Z,69532.09
2022-10-20T22:56:35.058Z,69532.09
2022-10-20T22:59:22.287Z,69532.09
2022-10-20T23:02:09.384Z,69532.09
2022-10-20T23:04:56.656Z,69532.09
2022-10-20T23:07:43.779Z,69532.09
2022-10-20T23:10:30.993Z,69532.09
2022-10-20T23:13:18.406Z,69532.09
2022-10-20T23:16:06.712Z,69532.09
2022-10-20T23:18:56.648Z,69532.09
2022-10-20T23:21:44.016Z,69532.09
2022-10-20T23:24:31.174Z,69532.09
2022-10-20T23:27:18.369Z,69532.09
2022-10-20T23:30:05.870Z,69532.09
2022-10-20T23:32:52.897Z,69532.09
2022-10-20T23:35:41.869Z,69532.09
2022-10-20T23:38:28.902Z,69532.09
2022-10-20T23:41:16.122Z,69532.09
2022-10-20T23:44:03.655Z,69532.09
2022-10-20T23:46:52.221Z,69532.09
2022-10-20T23:49:39.486Z,69532.09
2022-10-20T23:52:26.992Z,69532.09
2022-10-20T23:55:15.583Z,69532.09
2022-10-20T23:58:02.837Z,69532.09
